sensor_id;sensor_type;location;lat;lon;timestamp;P1;durP1;ratioP1;P2;durP2;ratioP2
75059;SDS011;63640;59.264;18.116;2023-02-01T00:01:26;14.23;;;4.30;;
75059;SDS011;63640;59.264;18.116;2023-02-01T00:06:17;14.25;;;3.25;;
75059;SDS011;63640;59.264;18.116;2023-02-01T00:08:43;13.63;;;3.78;;
75059;SDS011;63640;59.264;18.116;2023-02-01T00:13:36;8.10;;;3.35;;
75059;SDS011;63640;59.264;18.116;2023-02-01T00:16:07;10.88;;;4.38;;
75059;SDS011;63640;59.264;18.116;2023-02-01T00:18:34;8.57;;;3.25;;
75059;SDS011;63640;59.264;18.116;2023-02-01T00:23:25;8.38;;;3.10;;
75059;SDS011;63640;59.264;18.116;2023-02-01T00:28:16;10.38;;;3.08;;
75059;SDS011;63640;59.264;18.116;2023-02-01T00:30:41;10.07;;;3.50;;
75059;SDS011;63640;59.264;18.116;2023-02-01T00:35:35;11.40;;;3.50;;
75059;SDS011;63640;59.264;18.116;2023-02-01T00:38:01;16.90;;;3.33;;
75059;SDS011;63640;59.264;18.116;2023-02-01T00:40:27;9.52;;;3.67;;
75059;SDS011;63640;59.264;18.116;2023-02-01T00:45:18;10.38;;;3.60;;
75059;SDS011;63640;59.264;18.116;2023-02-01T00:47:44;10.23;;;4.03;;
75059;SDS011;63640;59.264;18.116;2023-02-01T00:52:35;9.90;;;3.08;;
75059;SDS011;63640;59.264;18.116;2023-02-01T00:57:26;9.88;;;3.65;;
75059;SDS011;63640;59.264;18.116;2023-02-01T01:02:17;13.90;;;3.75;;
75059;SDS011;63640;59.264;18.116;2023-02-01T01:07:08;8.20;;;2.80;;
75059;SDS011;63640;59.264;18.116;2023-02-01T01:11:59;8.18;;;3.45;;
75059;SDS011;63640;59.264;18.116;2023-02-01T01:14:28;13.85;;;3.88;;
75059;SDS011;63640;59.264;18.116;2023-02-01T01:16:54;9.68;;;3.08;;
75059;SDS011;63640;59.264;18.116;2023-02-01T01:19:19;12.00;;;4.18;;
75059;SDS011;63640;59.264;18.116;2023-02-01T01:24:10;9.55;;;3.55;;
75059;SDS011;63640;59.264;18.116;2023-02-01T01:29:01;14.45;;;4.55;;
75059;SDS011;63640;59.264;18.116;2023-02-01T01:31:26;12.65;;;4.35;;
75059;SDS011;63640;59.264;18.116;2023-02-01T01:36:19;15.60;;;4.05;;
75059;SDS011;63640;59.264;18.116;2023-02-01T01:38:45;10.73;;;4.35;;
75059;SDS011;63640;59.264;18.116;2023-02-01T01:43:59;18.30;;;4.47;;
75059;SDS011;63640;59.264;18.116;2023-02-01T01:46:31;11.15;;;4.05;;
75059;SDS011;63640;59.264;18.116;2023-02-01T01:49:08;12.88;;;4.22;;
75059;SDS011;63640;59.264;18.116;2023-02-01T01:51:37;11.00;;;4.10;;
75059;SDS011;63640;59.264;18.116;2023-02-01T01:54:14;11.00;;;3.80;;
75059;SDS011;63640;59.264;18.116;2023-02-01T01:56:42;14.00;;;4.03;;
75059;SDS011;63640;59.264;18.116;2023-02-01T01:59:08;9.35;;;4.03;;
75059;SDS011;63640;59.264;18.116;2023-02-01T02:03:59;15.13;;;3.45;;
75059;SDS011;63640;59.264;18.116;2023-02-01T02:09:00;15.45;;;4.28;;
75059;SDS011;63640;59.264;18.116;2023-02-01T02:11:26;11.32;;;4.32;;
75059;SDS011;63640;59.264;18.116;2023-02-01T02:25:11;10.52;;;4.07;;
75059;SDS011;63640;59.264;18.116;2023-02-01T02:34:09;15.63;;;3.85;;
75059;SDS011;63640;59.264;18.116;2023-02-01T02:42:02;11.55;;;4.57;;
75059;SDS011;63640;59.264;18.116;2023-02-01T02:45:23;15.00;;;4.35;;
75059;SDS011;63640;59.264;18.116;2023-02-01T02:51:01;18.65;;;4.43;;
75059;SDS011;63640;59.264;18.116;2023-02-01T02:56:38;11.60;;;4.25;;
75059;SDS011;63640;59.264;18.116;2023-02-01T02:59:24;11.15;;;4.35;;
75059;SDS011;63640;59.264;18.116;2023-02-01T03:02:09;12.05;;;4.00;;
75059;SDS011;63640;59.264;18.116;2023-02-01T03:04:53;14.55;;;4.35;;
75059;SDS011;63640;59.264;18.116;2023-02-01T03:13:48;15.13;;;4.45;;
75059;SDS011;63640;59.264;18.116;2023-02-01T03:18:58;15.93;;;4.07;;
75059;SDS011;63640;59.264;18.116;2023-02-01T03:21:35;11.98;;;4.13;;
75059;SDS011;63640;59.264;18.116;2023-02-01T03:24:04;11.60;;;3.90;;
75059;SDS011;63640;59.264;18.116;2023-02-01T03:27:00;10.50;;;4.18;;
75059;SDS011;63640;59.264;18.116;2023-02-01T03:29:39;13.45;;;4.43;;
75059;SDS011;63640;59.264;18.116;2023-02-01T03:32:09;16.42;;;4.88;;
75059;SDS011;63640;59.264;18.116;2023-02-01T03:34:35;12.57;;;4.57;;
75059;SDS011;63640;59.264;18.116;2023-02-01T03:37:08;18.35;;;5.15;;
75059;SDS011;63640;59.264;18.116;2023-02-01T03:42:21;11.10;;;4.95;;
75059;SDS011;63640;59.264;18.116;2023-02-01T03:45:04;15.95;;;5.25;;
75059;SDS011;63640;59.264;18.116;2023-02-01T03:47:33;14.82;;;4.57;;
75059;SDS011;63640;59.264;18.116;2023-02-01T03:50:02;15.07;;;4.95;;
75059;SDS011;63640;59.264;18.116;2023-02-01T03:52:36;13.73;;;5.10;;
75059;SDS011;63640;59.264;18.116;2023-02-01T03:55:16;11.45;;;4.80;;
75059;SDS011;63640;59.264;18.116;2023-02-01T03:57:48;13.70;;;4.97;;
75059;SDS011;63640;59.264;18.116;2023-02-01T04:00:22;15.68;;;5.35;;
75059;SDS011;63640;59.264;18.116;2023-02-01T04:02:50;18.20;;;5.13;;
75059;SDS011;63640;59.264;18.116;2023-02-01T04:05:15;16.30;;;4.80;;
75059;SDS011;63640;59.264;18.116;2023-02-01T04:07:41;13.32;;;4.72;;
75059;SDS011;63640;59.264;18.116;2023-02-01T04:10:08;12.32;;;5.20;;
75059;SDS011;63640;59.264;18.116;2023-02-01T04:12:34;10.57;;;4.40;;
75059;SDS011;63640;59.264;18.116;2023-02-01T04:14:59;19.50;;;4.80;;
75059;SDS011;63640;59.264;18.116;2023-02-01T04:17:25;14.82;;;4.93;;
75059;SDS011;63640;59.264;18.116;2023-02-01T04:19:50;11.73;;;4.80;;
75059;SDS011;63640;59.264;18.116;2023-02-01T04:22:16;11.25;;;4.75;;
75059;SDS011;63640;59.264;18.116;2023-02-01T04:24:42;13.48;;;4.40;;
75059;SDS011;63640;59.264;18.116;2023-02-01T04:27:07;11.18;;;4.78;;
75059;SDS011;63640;59.264;18.116;2023-02-01T04:29:33;14.05;;;4.68;;
75059;SDS011;63640;59.264;18.116;2023-02-01T04:31:58;12.68;;;4.72;;
75059;SDS011;63640;59.264;18.116;2023-02-01T04:34:24;12.65;;;5.15;;
75059;SDS011;63640;59.264;18.116;2023-02-01T04:36:50;11.65;;;5.00;;
75059;SDS011;63640;59.264;18.116;2023-02-01T04:39:16;16.52;;;5.43;;
75059;SDS011;63640;59.264;18.116;2023-02-01T04:41:42;16.35;;;4.93;;
75059;SDS011;63640;59.264;18.116;2023-02-01T04:44:09;16.30;;;4.72;;
75059;SDS011;63640;59.264;18.116;2023-02-01T04:46:39;11.77;;;4.32;;
75059;SDS011;63640;59.264;18.116;2023-02-01T04:49:04;14.25;;;5.10;;
75059;SDS011;63640;59.264;18.116;2023-02-01T04:51:30;13.30;;;4.85;;
75059;SDS011;63640;59.264;18.116;2023-02-01T04:53:56;12.60;;;4.32;;
75059;SDS011;63640;59.264;18.116;2023-02-01T04:56:21;14.38;;;4.57;;
75059;SDS011;63640;59.264;18.116;2023-02-01T04:58:47;14.48;;;4.95;;
75059;SDS011;63640;59.264;18.116;2023-02-01T05:01:12;18.55;;;4.63;;
75059;SDS011;63640;59.264;18.116;2023-02-01T05:03:38;12.20;;;5.10;;
75059;SDS011;63640;59.264;18.116;2023-02-01T05:06:03;12.70;;;4.97;;
75059;SDS011;63640;59.264;18.116;2023-02-01T05:08:30;11.80;;;4.38;;
75059;SDS011;63640;59.264;18.116;2023-02-01T05:10:56;13.00;;;4.30;;
75059;SDS011;63640;59.264;18.116;2023-02-01T05:13:21;14.27;;;5.63;;
75059;SDS011;63640;59.264;18.116;2023-02-01T05:16:06;13.82;;;4.22;;
75059;SDS011;63640;59.264;18.116;2023-02-01T05:18:32;12.35;;;4.57;;
75059;SDS011;63640;59.264;18.116;2023-02-01T05:20:57;11.57;;;4.43;;
75059;SDS011;63640;59.264;18.116;2023-02-01T05:23:23;13.82;;;4.60;;
75059;SDS011;63640;59.264;18.116;2023-02-01T05:25:48;11.90;;;5.30;;
75059;SDS011;63640;59.264;18.116;2023-02-01T05:28:14;12.02;;;4.60;;
75059;SDS011;63640;59.264;18.116;2023-02-01T05:30:39;13.77;;;4.28;;
75059;SDS011;63640;59.264;18.116;2023-02-01T05:33:05;12.98;;;4.40;;
75059;SDS011;63640;59.264;18.116;2023-02-01T05:35:30;11.90;;;4.35;;
75059;SDS011;63640;59.264;18.116;2023-02-01T05:37:56;10.82;;;4.13;;
75059;SDS011;63640;59.264;18.116;2023-02-01T05:40:21;13.85;;;4.55;;
75059;SDS011;63640;59.264;18.116;2023-02-01T05:42:47;16.25;;;4.88;;
75059;SDS011;63640;59.264;18.116;2023-02-01T05:45:12;13.05;;;4.57;;
75059;SDS011;63640;59.264;18.116;2023-02-01T05:47:38;12.55;;;4.22;;
75059;SDS011;63640;59.264;18.116;2023-02-01T05:50:04;11.52;;;4.03;;
75059;SDS011;63640;59.264;18.116;2023-02-01T05:52:31;13.52;;;4.22;;
75059;SDS011;63640;59.264;18.116;2023-02-01T05:54:57;10.90;;;3.80;;
75059;SDS011;63640;59.264;18.116;2023-02-01T05:57:23;16.30;;;4.80;;
75059;SDS011;63640;59.264;18.116;2023-02-01T05:59:48;11.30;;;3.85;;
75059;SDS011;63640;59.264;18.116;2023-02-01T06:02:14;15.30;;;4.85;;
75059;SDS011;63640;59.264;18.116;2023-02-01T06:04:40;13.85;;;4.18;;
75059;SDS011;63640;59.264;18.116;2023-02-01T06:07:07;12.82;;;4.78;;
75059;SDS011;63640;59.264;18.116;2023-02-01T06:09:34;17.10;;;4.47;;
75059;SDS011;63640;59.264;18.116;2023-02-01T06:12:00;15.52;;;4.88;;
75059;SDS011;63640;59.264;18.116;2023-02-01T06:14:26;14.30;;;4.78;;
75059;SDS011;63640;59.264;18.116;2023-02-01T06:16:52;10.35;;;4.20;;
75059;SDS011;63640;59.264;18.116;2023-02-01T06:19:18;14.65;;;4.53;;
75059;SDS011;63640;59.264;18.116;2023-02-01T06:21:44;11.98;;;5.05;;
75059;SDS011;63640;59.264;18.116;2023-02-01T06:24:09;13.48;;;4.13;;
75059;SDS011;63640;59.264;18.116;2023-02-01T06:26:35;15.55;;;4.57;;
75059;SDS011;63640;59.264;18.116;2023-02-01T06:29:01;15.27;;;4.57;;
75059;SDS011;63640;59.264;18.116;2023-02-01T06:31:26;11.98;;;4.40;;
75059;SDS011;63640;59.264;18.116;2023-02-01T06:33:52;13.98;;;4.15;;
75059;SDS011;63640;59.264;18.116;2023-02-01T06:36:18;16.33;;;4.88;;
75059;SDS011;63640;59.264;18.116;2023-02-01T06:38:46;12.20;;;4.28;;
75059;SDS011;63640;59.264;18.116;2023-02-01T06:41:12;14.45;;;4.20;;
75059;SDS011;63640;59.264;18.116;2023-02-01T06:43:37;16.98;;;4.30;;
75059;SDS011;63640;59.264;18.116;2023-02-01T06:46:04;12.90;;;4.43;;
75059;SDS011;63640;59.264;18.116;2023-02-01T06:48:32;9.77;;;3.90;;
75059;SDS011;63640;59.264;18.116;2023-02-01T06:50:58;9.85;;;3.88;;
75059;SDS011;63640;59.264;18.116;2023-02-01T06:53:23;17.73;;;3.85;;
75059;SDS011;63640;59.264;18.116;2023-02-01T06:55:56;12.32;;;3.80;;
75059;SDS011;63640;59.264;18.116;2023-02-01T06:58:23;14.68;;;4.28;;
75059;SDS011;63640;59.264;18.116;2023-02-01T07:00:49;14.13;;;4.68;;
75059;SDS011;63640;59.264;18.116;2023-02-01T07:03:15;12.07;;;4.35;;
75059;SDS011;63640;59.264;18.116;2023-02-01T07:05:41;13.75;;;3.72;;
75059;SDS011;63640;59.264;18.116;2023-02-01T07:08:06;13.38;;;4.32;;
75059;SDS011;63640;59.264;18.116;2023-02-01T07:10:33;10.60;;;3.72;;
75059;SDS011;63640;59.264;18.116;2023-02-01T07:12:59;18.05;;;4.05;;
75059;SDS011;63640;59.264;18.116;2023-02-01T07:15:25;12.30;;;3.60;;
75059;SDS011;63640;59.264;18.116;2023-02-01T07:17:50;14.45;;;4.75;;
75059;SDS011;63640;59.264;18.116;2023-02-01T07:20:16;9.32;;;3.30;;
75059;SDS011;63640;59.264;18.116;2023-02-01T07:22:41;15.50;;;3.90;;
75059;SDS011;63640;59.264;18.116;2023-02-01T07:25:07;12.98;;;4.43;;
75059;SDS011;63640;59.264;18.116;2023-02-01T07:27:34;12.90;;;3.97;;
75059;SDS011;63640;59.264;18.116;2023-02-01T07:30:00;9.48;;;3.20;;
75059;SDS011;63640;59.264;18.116;2023-02-01T07:32:27;12.45;;;3.65;;
75059;SDS011;63640;59.264;18.116;2023-02-01T07:34:53;10.50;;;3.55;;
75059;SDS011;63640;59.264;18.116;2023-02-01T07:37:19;11.80;;;4.15;;
75059;SDS011;63640;59.264;18.116;2023-02-01T07:39:44;13.88;;;4.63;;
75059;SDS011;63640;59.264;18.116;2023-02-01T07:42:10;13.95;;;4.13;;
75059;SDS011;63640;59.264;18.116;2023-02-01T07:44:35;10.85;;;4.28;;
75059;SDS011;63640;59.264;18.116;2023-02-01T07:47:01;20.35;;;4.63;;
75059;SDS011;63640;59.264;18.116;2023-02-01T07:49:26;12.45;;;4.40;;
75059;SDS011;63640;59.264;18.116;2023-02-01T07:51:52;9.38;;;4.22;;
75059;SDS011;63640;59.264;18.116;2023-02-01T07:54:17;9.90;;;4.43;;
75059;SDS011;63640;59.264;18.116;2023-02-01T07:56:43;13.23;;;3.97;;
75059;SDS011;63640;59.264;18.116;2023-02-01T07:59:08;10.00;;;3.70;;
75059;SDS011;63640;59.264;18.116;2023-02-01T08:01:34;11.32;;;4.35;;
75059;SDS011;63640;59.264;18.116;2023-02-01T08:04:00;11.52;;;3.88;;
75059;SDS011;63640;59.264;18.116;2023-02-01T08:06:28;14.27;;;4.20;;
75059;SDS011;63640;59.264;18.116;2023-02-01T08:08:56;15.90;;;4.05;;
75059;SDS011;63640;59.264;18.116;2023-02-01T08:11:22;15.13;;;3.75;;
75059;SDS011;63640;59.264;18.116;2023-02-01T08:13:48;13.52;;;4.95;;
75059;SDS011;63640;59.264;18.116;2023-02-01T08:16:14;12.15;;;3.55;;
75059;SDS011;63640;59.264;18.116;2023-02-01T08:18:41;14.18;;;3.90;;
75059;SDS011;63640;59.264;18.116;2023-02-01T08:21:07;12.75;;;3.58;;
75059;SDS011;63640;59.264;18.116;2023-02-01T08:23:35;11.23;;;4.10;;
75059;SDS011;63640;59.264;18.116;2023-02-01T08:26:11;12.15;;;3.40;;
75059;SDS011;63640;59.264;18.116;2023-02-01T08:28:48;10.32;;;3.42;;
75059;SDS011;63640;59.264;18.116;2023-02-01T08:31:17;10.98;;;3.55;;
75059;SDS011;63640;59.264;18.116;2023-02-01T08:33:47;14.80;;;3.83;;
75059;SDS011;63640;59.264;18.116;2023-02-01T08:36:14;13.10;;;3.42;;
75059;SDS011;63640;59.264;18.116;2023-02-01T08:38:40;12.85;;;3.50;;
75059;SDS011;63640;59.264;18.116;2023-02-01T08:43:36;12.70;;;3.13;;
75059;SDS011;63640;59.264;18.116;2023-02-01T08:46:02;12.07;;;3.92;;
75059;SDS011;63640;59.264;18.116;2023-02-01T08:48:28;14.40;;;3.60;;
75059;SDS011;63640;59.264;18.116;2023-02-01T08:50:54;21.80;;;3.85;;
75059;SDS011;63640;59.264;18.116;2023-02-01T08:53:19;14.18;;;3.90;;
75059;SDS011;63640;59.264;18.116;2023-02-01T08:55:45;16.17;;;4.18;;
75059;SDS011;63640;59.264;18.116;2023-02-01T08:58:12;14.70;;;3.30;;
75059;SDS011;63640;59.264;18.116;2023-02-01T09:00:39;10.60;;;3.15;;
75059;SDS011;63640;59.264;18.116;2023-02-01T09:03:05;10.85;;;3.10;;
75059;SDS011;63640;59.264;18.116;2023-02-01T09:05:30;10.32;;;3.47;;
75059;SDS011;63640;59.264;18.116;2023-02-01T09:07:56;11.75;;;3.17;;
75059;SDS011;63640;59.264;18.116;2023-02-01T09:10:21;15.20;;;3.25;;
75059;SDS011;63640;59.264;18.116;2023-02-01T09:12:47;10.05;;;3.38;;
75059;SDS011;63640;59.264;18.116;2023-02-01T09:15:12;13.27;;;3.65;;
75059;SDS011;63640;59.264;18.116;2023-02-01T09:17:38;9.40;;;3.75;;
75059;SDS011;63640;59.264;18.116;2023-02-01T09:20:04;11.00;;;3.47;;
75059;SDS011;63640;59.264;18.116;2023-02-01T09:22:30;14.40;;;3.55;;
75059;SDS011;63640;59.264;18.116;2023-02-01T09:24:55;10.30;;;3.15;;
75059;SDS011;63640;59.264;18.116;2023-02-01T09:27:21;9.48;;;3.03;;
75059;SDS011;63640;59.264;18.116;2023-02-01T09:29:47;9.65;;;3.05;;
75059;SDS011;63640;59.264;18.116;2023-02-01T09:32:18;9.07;;;3.00;;
75059;SDS011;63640;59.264;18.116;2023-02-01T09:34:47;15.18;;;3.35;;
75059;SDS011;63640;59.264;18.116;2023-02-01T09:37:16;17.23;;;2.95;;
75059;SDS011;63640;59.264;18.116;2023-02-01T09:39:42;10.10;;;2.72;;
75059;SDS011;63640;59.264;18.116;2023-02-01T09:47:19;11.10;;;2.90;;
75059;SDS011;63640;59.264;18.116;2023-02-01T09:49:48;8.35;;;2.55;;
75059;SDS011;63640;59.264;18.116;2023-02-01T09:52:24;6.30;;;2.10;;
75059;SDS011;63640;59.264;18.116;2023-02-01T09:54:58;11.65;;;2.53;;
75059;SDS011;63640;59.264;18.116;2023-02-01T09:57:36;10.95;;;2.85;;
75059;SDS011;63640;59.264;18.116;2023-02-01T10:00:06;9.10;;;2.22;;
75059;SDS011;63640;59.264;18.116;2023-02-01T10:02:40;13.98;;;2.65;;
75059;SDS011;63640;59.264;18.116;2023-02-01T10:05:14;10.80;;;2.25;;
75059;SDS011;63640;59.264;18.116;2023-02-01T10:08:19;18.05;;;2.92;;
75059;SDS011;63640;59.264;18.116;2023-02-01T10:10:51;9.80;;;2.42;;
75059;SDS011;63640;59.264;18.116;2023-02-01T10:21:19;7.57;;;2.45;;
75059;SDS011;63640;59.264;18.116;2023-02-01T10:26:51;11.45;;;3.10;;
75059;SDS011;63640;59.264;18.116;2023-02-01T10:29:38;10.85;;;3.00;;
75059;SDS011;63640;59.264;18.116;2023-02-01T10:32:16;8.57;;;2.92;;
75059;SDS011;63640;59.264;18.116;2023-02-01T10:34:46;9.38;;;3.05;;
75059;SDS011;63640;59.264;18.116;2023-02-01T10:37:26;6.47;;;2.92;;
75059;SDS011;63640;59.264;18.116;2023-02-01T10:39:58;11.13;;;2.17;;
75059;SDS011;63640;59.264;18.116;2023-02-01T10:42:26;6.22;;;2.47;;
75059;SDS011;63640;59.264;18.116;2023-02-01T10:44:53;9.82;;;2.15;;
75059;SDS011;63640;59.264;18.116;2023-02-01T10:47:20;8.93;;;2.05;;
75059;SDS011;63640;59.264;18.116;2023-02-01T10:53:00;4.68;;;1.48;;
75059;SDS011;63640;59.264;18.116;2023-02-01T10:55:38;8.15;;;1.88;;
75059;SDS011;63640;59.264;18.116;2023-02-01T10:58:48;7.88;;;1.65;;
75059;SDS011;63640;59.264;18.116;2023-02-01T11:03:58;6.90;;;1.55;;
75059;SDS011;63640;59.264;18.116;2023-02-01T11:08:56;7.88;;;1.85;;
75059;SDS011;63640;59.264;18.116;2023-02-01T11:11:23;10.38;;;1.88;;
75059;SDS011;63640;59.264;18.116;2023-02-01T11:13:53;8.38;;;1.92;;
75059;SDS011;63640;59.264;18.116;2023-02-01T11:16:20;8.10;;;2.03;;
75059;SDS011;63640;59.264;18.116;2023-02-01T11:18:46;7.07;;;1.98;;
75059;SDS011;63640;59.264;18.116;2023-02-01T11:21:19;8.55;;;1.75;;
75059;SDS011;63640;59.264;18.116;2023-02-01T11:23:45;6.82;;;1.50;;
75059;SDS011;63640;59.264;18.116;2023-02-01T11:28:37;7.15;;;1.60;;
75059;SDS011;63640;59.264;18.116;2023-02-01T11:31:07;8.20;;;2.05;;
75059;SDS011;63640;59.264;18.116;2023-02-01T11:33:35;10.00;;;2.13;;
75059;SDS011;63640;59.264;18.116;2023-02-01T11:36:06;8.05;;;2.15;;
75059;SDS011;63640;59.264;18.116;2023-02-01T11:38:34;6.95;;;1.88;;
75059;SDS011;63640;59.264;18.116;2023-02-01T11:41:20;9.95;;;2.20;;
75059;SDS011;63640;59.264;18.116;2023-02-01T11:43:52;7.30;;;1.88;;
75059;SDS011;63640;59.264;18.116;2023-02-01T11:46:19;8.10;;;2.17;;
75059;SDS011;63640;59.264;18.116;2023-02-01T11:48:53;7.38;;;2.75;;
75059;SDS011;63640;59.264;18.116;2023-02-01T11:54:28;9.05;;;2.50;;
75059;SDS011;63640;59.264;18.116;2023-02-01T12:11:06;14.98;;;3.50;;
75059;SDS011;63640;59.264;18.116;2023-02-01T12:17:05;14.52;;;3.90;;
75059;SDS011;63640;59.264;18.116;2023-02-01T12:20:19;9.82;;;3.45;;
75059;SDS011;63640;59.264;18.116;2023-02-01T12:39:07;7.55;;;2.40;;
75059;SDS011;63640;59.264;18.116;2023-02-01T12:44:18;7.82;;;2.42;;
75059;SDS011;63640;59.264;18.116;2023-02-01T12:52:39;6.93;;;1.73;;
75059;SDS011;63640;59.264;18.116;2023-02-01T12:55:15;6.50;;;1.75;;
75059;SDS011;63640;59.264;18.116;2023-02-01T12:58:11;6.47;;;1.77;;
75059;SDS011;63640;59.264;18.116;2023-02-01T13:00:40;5.57;;;1.70;;
75059;SDS011;63640;59.264;18.116;2023-02-01T13:06:06;10.23;;;1.73;;
75059;SDS011;63640;59.264;18.116;2023-02-01T13:11:36;7.57;;;2.13;;
75059;SDS011;63640;59.264;18.116;2023-02-01T13:17:00;11.18;;;2.03;;
75059;SDS011;63640;59.264;18.116;2023-02-01T13:24:41;9.38;;;2.50;;
75059;SDS011;63640;59.264;18.116;2023-02-01T13:27:10;5.45;;;1.75;;
75059;SDS011;63640;59.264;18.116;2023-02-01T13:29:37;11.10;;;2.08;;
75059;SDS011;63640;59.264;18.116;2023-02-01T13:43:00;8.93;;;1.65;;
75059;SDS011;63640;59.264;18.116;2023-02-01T13:45:29;5.63;;;1.50;;
75059;SDS011;63640;59.264;18.116;2023-02-01T13:48:01;3.85;;;1.30;;
75059;SDS011;63640;59.264;18.116;2023-02-01T13:50:30;6.20;;;1.30;;
75059;SDS011;63640;59.264;18.116;2023-02-01T13:53:01;8.18;;;1.60;;
75059;SDS011;63640;59.264;18.116;2023-02-01T13:55:36;6.40;;;1.30;;
75059;SDS011;63640;59.264;18.116;2023-02-01T14:00:45;5.07;;;1.27;;
75059;SDS011;63640;59.264;18.116;2023-02-01T14:03:18;5.75;;;1.30;;
75059;SDS011;63640;59.264;18.116;2023-02-01T14:08:13;6.35;;;1.63;;
75059;SDS011;63640;59.264;18.116;2023-02-01T14:10:58;7.13;;;1.30;;
75059;SDS011;63640;59.264;18.116;2023-02-01T14:13:31;4.68;;;1.50;;
75059;SDS011;63640;59.264;18.116;2023-02-01T14:18:56;5.88;;;1.50;;
75059;SDS011;63640;59.264;18.116;2023-02-01T14:21:24;9.68;;;1.77;;
75059;SDS011;63640;59.264;18.116;2023-02-01T14:26:23;9.73;;;2.03;;
75059;SDS011;63640;59.264;18.116;2023-02-01T14:34:19;9.40;;;2.08;;
75059;SDS011;63640;59.264;18.116;2023-02-01T14:36:51;6.38;;;2.00;;
75059;SDS011;63640;59.264;18.116;2023-02-01T14:39:36;4.70;;;1.67;;
75059;SDS011;63640;59.264;18.116;2023-02-01T14:43:11;5.43;;;1.70;;
75059;SDS011;63640;59.264;18.116;2023-02-01T14:47:44;7.05;;;2.22;;
75059;SDS011;63640;59.264;18.116;2023-02-01T14:55:41;8.38;;;2.28;;
75059;SDS011;63640;59.264;18.116;2023-02-01T15:01:21;7.88;;;2.30;;
75059;SDS011;63640;59.264;18.116;2023-02-01T15:08:59;6.22;;;1.98;;
75059;SDS011;63640;59.264;18.116;2023-02-01T15:11:55;6.57;;;2.15;;
75059;SDS011;63640;59.264;18.116;2023-02-01T15:14:35;6.45;;;2.40;;
75059;SDS011;63640;59.264;18.116;2023-02-01T15:17:24;7.63;;;2.30;;
75059;SDS011;63640;59.264;18.116;2023-02-01T15:19:55;9.65;;;2.17;;
75059;SDS011;63640;59.264;18.116;2023-02-01T15:22:22;6.88;;;1.92;;
75059;SDS011;63640;59.264;18.116;2023-02-01T15:24:52;8.20;;;2.05;;
75059;SDS011;63640;59.264;18.116;2023-02-01T15:27:19;6.90;;;2.25;;
75059;SDS011;63640;59.264;18.116;2023-02-01T15:29:45;4.95;;;1.92;;
75059;SDS011;63640;59.264;18.116;2023-02-01T15:32:30;7.55;;;1.80;;
75059;SDS011;63640;59.264;18.116;2023-02-01T15:34:56;6.00;;;1.92;;
75059;SDS011;63640;59.264;18.116;2023-02-01T15:37:22;7.43;;;1.52;;
75059;SDS011;63640;59.264;18.116;2023-02-01T15:42:36;5.72;;;1.73;;
75059;SDS011;63640;59.264;18.116;2023-02-01T15:45:03;6.75;;;2.20;;
75059;SDS011;63640;59.264;18.116;2023-02-01T15:47:29;7.35;;;1.88;;
75059;SDS011;63640;59.264;18.116;2023-02-01T15:49:59;6.07;;;2.17;;
75059;SDS011;63640;59.264;18.116;2023-02-01T15:52:27;8.98;;;1.95;;
75059;SDS011;63640;59.264;18.116;2023-02-01T15:55:00;6.68;;;2.08;;
75059;SDS011;63640;59.264;18.116;2023-02-01T15:57:33;11.73;;;2.03;;
75059;SDS011;63640;59.264;18.116;2023-02-01T16:00:03;6.50;;;1.83;;
75059;SDS011;63640;59.264;18.116;2023-02-01T16:02:33;6.38;;;1.70;;
75059;SDS011;63640;59.264;18.116;2023-02-01T16:05:02;5.43;;;1.73;;
75059;SDS011;63640;59.264;18.116;2023-02-01T16:07:30;7.05;;;2.47;;
75059;SDS011;63640;59.264;18.116;2023-02-01T16:09:58;8.77;;;2.00;;
75059;SDS011;63640;59.264;18.116;2023-02-01T16:15:00;6.10;;;2.25;;
75059;SDS011;63640;59.264;18.116;2023-02-01T16:17:27;7.22;;;1.98;;
75059;SDS011;63640;59.264;18.116;2023-02-01T16:19:52;8.35;;;2.17;;
75059;SDS011;63640;59.264;18.116;2023-02-01T16:22:18;5.97;;;2.08;;
75059;SDS011;63640;59.264;18.116;2023-02-01T16:24:44;6.50;;;2.05;;
75059;SDS011;63640;59.264;18.116;2023-02-01T16:27:09;5.47;;;1.92;;
75059;SDS011;63640;59.264;18.116;2023-02-01T16:29:35;8.32;;;2.28;;
75059;SDS011;63640;59.264;18.116;2023-02-01T16:32:01;5.50;;;1.52;;
75059;SDS011;63640;59.264;18.116;2023-02-01T16:34:26;5.65;;;1.60;;
75059;SDS011;63640;59.264;18.116;2023-02-01T16:36:52;10.93;;;2.08;;
75059;SDS011;63640;59.264;18.116;2023-02-01T16:39:20;6.90;;;1.77;;
75059;SDS011;63640;59.264;18.116;2023-02-01T16:41:46;9.60;;;2.40;;
75059;SDS011;63640;59.264;18.116;2023-02-01T16:44:11;7.10;;;1.80;;
75059;SDS011;63640;59.264;18.116;2023-02-01T16:46:40;10.75;;;1.90;;
75059;SDS011;63640;59.264;18.116;2023-02-01T16:49:21;7.95;;;1.80;;
75059;SDS011;63640;59.264;18.116;2023-02-01T16:51:49;7.72;;;1.80;;
75059;SDS011;63640;59.264;18.116;2023-02-01T16:54:18;7.57;;;2.13;;
75059;SDS011;63640;59.264;18.116;2023-02-01T16:56:44;7.88;;;2.22;;
75059;SDS011;63640;59.264;18.116;2023-02-01T16:59:10;5.30;;;1.77;;
75059;SDS011;63640;59.264;18.116;2023-02-01T17:01:36;5.63;;;1.65;;
75059;SDS011;63640;59.264;18.116;2023-02-01T17:04:02;7.75;;;1.60;;
75059;SDS011;63640;59.264;18.116;2023-02-01T17:06:28;6.93;;;1.92;;
75059;SDS011;63640;59.264;18.116;2023-02-01T17:08:57;7.35;;;2.00;;
75059;SDS011;63640;59.264;18.116;2023-02-01T17:11:24;7.68;;;1.83;;
75059;SDS011;63640;59.264;18.116;2023-02-01T17:13:50;6.88;;;1.98;;
75059;SDS011;63640;59.264;18.116;2023-02-01T17:18:50;10.93;;;2.33;;
75059;SDS011;63640;59.264;18.116;2023-02-01T17:21:19;5.90;;;2.00;;
75059;SDS011;63640;59.264;18.116;2023-02-01T17:23:44;8.82;;;2.60;;
75059;SDS011;63640;59.264;18.116;2023-02-01T17:26:10;9.35;;;2.25;;
75059;SDS011;63640;59.264;18.116;2023-02-01T17:28:36;9.88;;;2.55;;
75059;SDS011;63640;59.264;18.116;2023-02-01T17:31:02;5.55;;;2.03;;
75059;SDS011;63640;59.264;18.116;2023-02-01T17:33:31;5.70;;;1.50;;
75059;SDS011;63640;59.264;18.116;2023-02-01T17:35:58;7.78;;;1.70;;
75059;SDS011;63640;59.264;18.116;2023-02-01T17:38:24;7.10;;;1.88;;
75059;SDS011;63640;59.264;18.116;2023-02-01T17:40:50;7.00;;;1.98;;
75059;SDS011;63640;59.264;18.116;2023-02-01T17:43:24;7.22;;;1.73;;
75059;SDS011;63640;59.264;18.116;2023-02-01T17:48:20;6.53;;;1.90;;
75059;SDS011;63640;59.264;18.116;2023-02-01T17:50:46;6.70;;;1.95;;
75059;SDS011;63640;59.264;18.116;2023-02-01T17:53:15;6.10;;;1.48;;
75059;SDS011;63640;59.264;18.116;2023-02-01T17:55:42;7.50;;;1.67;;
75059;SDS011;63640;59.264;18.116;2023-02-01T17:58:12;7.28;;;1.75;;
75059;SDS011;63640;59.264;18.116;2023-02-01T18:00:39;5.07;;;1.73;;
75059;SDS011;63640;59.264;18.116;2023-02-01T18:03:05;7.68;;;1.60;;
75059;SDS011;63640;59.264;18.116;2023-02-01T18:05:41;6.28;;;1.38;;
75059;SDS011;63640;59.264;18.116;2023-02-01T18:08:08;5.38;;;1.70;;
75059;SDS011;63640;59.264;18.116;2023-02-01T18:10:34;5.47;;;1.58;;
75059;SDS011;63640;59.264;18.116;2023-02-01T18:13:00;8.70;;;1.52;;
75059;SDS011;63640;59.264;18.116;2023-02-01T18:15:28;4.55;;;1.50;;
75059;SDS011;63640;59.264;18.116;2023-02-01T18:17:55;7.57;;;1.58;;
75059;SDS011;63640;59.264;18.116;2023-02-01T18:20:21;8.68;;;1.75;;
75059;SDS011;63640;59.264;18.116;2023-02-01T18:22:48;6.25;;;1.83;;